sensor_id;sensor_type;location;lat;lon;timestamp;pressure;altitude;pressure_sealevel;temperature
14851;BMP180;7517;48.400;11.770;2022-12-29T00:02:03;96195.00;;;7.20
14851;BMP180;7517;48.400;11.770;2022-12-29T00:04:31;96188.00;;;7.20
14851;BMP180;7517;48.400;11.770;2022-12-29T00:06:58;96179.00;;;7.20
14851;BMP180;7517;48.400;11.770;2022-12-29T00:09:26;96183.00;;;7.20
14851;BMP180;7517;48.400;11.770;2022-12-29T00:11:54;96171.00;;;7.20
14851;BMP180;7517;48.400;11.770;2022-12-29T00:14:21;96178.00;;;7.20
14851;BMP180;7517;48.400;11.770;2022-12-29T00:17:06;96168.00;;;7.20
14851;BMP180;7517;48.400;11.770;2022-12-29T00:19:33;96169.00;;;7.20
14851;BMP180;7517;48.400;11.770;2022-12-29T00:22:18;96172.00;;;7.20
14851;BMP180;7517;48.400;11.770;2022-12-29T00:25:04;96169.00;;;7.30
14851;BMP180;7517;48.400;11.770;2022-12-29T00:27:50;96168.00;;;7.30
14851;BMP180;7517;48.400;11.770;2022-12-29T00:30:36;96167.00;;;7.30
14851;BMP180;7517;48.400;11.770;2022-12-29T00:33:25;96168.00;;;7.30
14851;BMP180;7517;48.400;11.770;2022-12-29T00:36:16;96168.00;;;7.40
14851;BMP180;7517;48.400;11.770;2022-12-29T00:38:49;96168.00;;;7.40
14851;BMP180;7517;48.400;11.770;2022-12-29T00:41:35;96174.00;;;7.40
14851;BMP180;7517;48.400;11.770;2022-12-29T00:44:21;96171.00;;;7.50
14851;BMP180;7517;48.400;11.770;2022-12-29T00:46:48;96170.00;;;7.50
14851;BMP180;7517;48.400;11.770;2022-12-29T00:49:15;96177.00;;;7.60
14851;BMP180;7517;48.400;11.770;2022-12-29T00:52:01;96173.00;;;7.60
14851;BMP180;7517;48.400;11.770;2022-12-29T00:54:30;96162.00;;;7.60
14851;BMP180;7517;48.400;11.770;2022-12-29T00:56:57;96164.00;;;7.60
14851;BMP180;7517;48.400;11.770;2022-12-29T00:59:26;96179.00;;;7.60
14851;BMP180;7517;48.400;11.770;2022-12-29T01:01:54;96174.00;;;7.70
14851;BMP180;7517;48.400;11.770;2022-12-29T01:04:24;96163.00;;;7.70
14851;BMP180;7517;48.400;11.770;2022-12-29T01:06:52;96179.00;;;7.70
14851;BMP180;7517;48.400;11.770;2022-12-29T01:09:20;96177.00;;;7.70
14851;BMP180;7517;48.400;11.770;2022-12-29T01:12:06;96172.00;;;7.70
14851;BMP180;7517;48.400;11.770;2022-12-29T01:14:36;96175.00;;;7.70
14851;BMP180;7517;48.400;11.770;2022-12-29T01:17:04;96176.00;;;7.70
14851;BMP180;7517;48.400;11.770;2022-12-29T01:19:31;96166.00;;;7.70
14851;BMP180;7517;48.400;11.770;2022-12-29T01:21:59;96169.00;;;7.70
14851;BMP180;7517;48.400;11.770;2022-12-29T01:24:26;96180.00;;;7.70
14851;BMP180;7517;48.400;11.770;2022-12-29T01:26:53;96172.00;;;7.70
14851;BMP180;7517;48.400;11.770;2022-12-29T01:29:21;96176.00;;;7.70
14851;BMP180;7517;48.400;11.770;2022-12-29T01:31:50;96184.00;;;7.60
14851;BMP180;7517;48.400;11.770;2022-12-29T01:34:17;96176.00;;;7.60
14851;BMP180;7517;48.400;11.770;2022-12-29T01:36:44;96171.00;;;7.60
14851;BMP180;7517;48.400;11.770;2022-12-29T01:39:11;96164.00;;;7.60
14851;BMP180;7517;48.400;11.770;2022-12-29T01:41:39;96163.00;;;7.60
14851;BMP180;7517;48.400;11.770;2022-12-29T01:44:50;96173.00;;;7.60
14851;BMP180;7517;48.400;11.770;2022-12-29T01:47:27;96167.00;;;7.60
14851;BMP180;7517;48.400;11.770;2022-12-29T01:50:00;96162.00;;;7.60
14851;BMP180;7517;48.400;11.770;2022-12-29T01:52:32;96161.00;;;7.60
14851;BMP180;7517;48.400;11.770;2022-12-29T01:55:03;96163.00;;;7.60
14851;BMP180;7517;48.400;11.770;2022-12-29T01:57:35;96172.00;;;7.60
14851;BMP180;7517;48.400;11.770;2022-12-29T02:00:08;96157.00;;;7.70
14851;BMP180;7517;48.400;11.770;2022-12-29T02:02:37;96157.00;;;7.70
14851;BMP180;7517;48.400;11.770;2022-12-29T02:05:11;96152.00;;;7.70
14851;BMP180;7517;48.400;11.770;2022-12-29T02:07:42;96139.00;;;7.70
14851;BMP180;7517;48.400;11.770;2022-12-29T02:10:10;96140.00;;;7.70
14851;BMP180;7517;48.400;11.770;2022-12-29T02:12:37;96138.00;;;7.70
14851;BMP180;7517;48.400;11.770;2022-12-29T02:15:06;96145.00;;;7.70
14851;BMP180;7517;48.400;11.770;2022-12-29T02:17:52;96156.00;;;7.70
14851;BMP180;7517;48.400;11.770;2022-12-29T02:24:25;96150.00;;;7.70
14851;BMP180;7517;48.400;11.770;2022-12-29T02:27:40;96151.00;;;7.70
14851;BMP180;7517;48.400;11.770;2022-12-29T02:30:40;96148.00;;;7.70
14851;BMP180;7517;48.400;11.770;2022-12-29T02:33:21;96145.00;;;7.80
14851;BMP180;7517;48.400;11.770;2022-12-29T02:36:01;96138.00;;;7.80
14851;BMP180;7517;48.400;11.770;2022-12-29T02:38:50;96147.00;;;7.80
14851;BMP180;7517;48.400;11.770;2022-12-29T02:41:25;96143.00;;;7.80
14851;BMP180;7517;48.400;11.770;2022-12-29T02:44:04;96144.00;;;7.80
14851;BMP180;7517;48.400;11.770;2022-12-29T02:46:41;96148.00;;;7.80
14851;BMP180;7517;48.400;11.770;2022-12-29T02:49:16;96136.00;;;7.90
14851;BMP180;7517;48.400;11.770;2022-12-29T02:51:54;96136.00;;;7.90
14851;BMP180;7517;48.400;11.770;2022-12-29T02:54:24;96146.00;;;7.90
14851;BMP180;7517;48.400;11.770;2022-12-29T02:57:12;96143.00;;;8.00
14851;BMP180;7517;48.400;11.770;2022-12-29T02:59:41;96143.00;;;8.00
14851;BMP180;7517;48.400;11.770;2022-12-29T03:02:38;96135.00;;;8.10
14851;BMP180;7517;48.400;11.770;2022-12-29T03:05:23;96129.00;;;8.10
14851;BMP180;7517;48.400;11.770;2022-12-29T03:08:04;96134.00;;;8.20
14851;BMP180;7517;48.400;11.770;2022-12-29T03:10:41;96118.00;;;8.30
14851;BMP180;7517;48.400;11.770;2022-12-29T03:13:23;96122.00;;;8.30
14851;BMP180;7517;48.400;11.770;2022-12-29T03:16:20;96119.00;;;8.40
14851;BMP180;7517;48.400;11.770;2022-12-29T03:18:57;96124.00;;;8.40
14851;BMP180;7517;48.400;11.770;2022-12-29T03:21:34;96124.00;;;8.50
14851;BMP180;7517;48.400;11.770;2022-12-29T03:24:25;96117.00;;;8.60
14851;BMP180;7517;48.400;11.770;2022-12-29T03:26:57;96116.00;;;8.60
14851;BMP180;7517;48.400;11.770;2022-12-29T03:29:27;96116.00;;;8.60
14851;BMP180;7517;48.400;11.770;2022-12-29T03:31:59;96108.00;;;8.70
14851;BMP180;7517;48.400;11.770;2022-12-29T03:34:28;96114.00;;;8.70
14851;BMP180;7517;48.400;11.770;2022-12-29T03:37:02;96111.00;;;8.80
14851;BMP180;7517;48.400;11.770;2022-12-29T03:39:32;96113.00;;;8.80
14851;BMP180;7517;48.400;11.770;2022-12-29T03:42:05;96109.00;;;8.90
14851;BMP180;7517;48.400;11.770;2022-12-29T03:44:35;96107.00;;;8.90
14851;BMP180;7517;48.400;11.770;2022-12-29T03:47:03;96105.00;;;9.00
14851;BMP180;7517;48.400;11.770;2022-12-29T03:49:32;96104.00;;;9.00
14851;BMP180;7517;48.400;11.770;2022-12-29T03:51:59;96103.00;;;9.10
14851;BMP180;7517;48.400;11.770;2022-12-29T03:54:26;96110.00;;;9.10
14851;BMP180;7517;48.400;11.770;2022-12-29T03:56:53;96116.00;;;9.20
14851;BMP180;7517;48.400;11.770;2022-12-29T03:59:21;96112.00;;;9.20
14851;BMP180;7517;48.400;11.770;2022-12-29T04:01:48;96115.00;;;9.30
14851;BMP180;7517;48.400;11.770;2022-12-29T04:04:15;96115.00;;;9.30
14851;BMP180;7517;48.400;11.770;2022-12-29T04:06:43;96115.00;;;9.30
14851;BMP180;7517;48.400;11.770;2022-12-29T04:09:11;96115.00;;;9.40
14851;BMP180;7517;48.400;11.770;2022-12-29T04:11:38;96118.00;;;9.40
14851;BMP180;7517;48.400;11.770;2022-12-29T04:14:08;96112.00;;;9.50
14851;BMP180;7517;48.400;11.770;2022-12-29T04:16:35;96111.00;;;9.50
14851;BMP180;7517;48.400;11.770;2022-12-29T04:19:04;96106.00;;;9.50
14851;BMP180;7517;48.400;11.770;2022-12-29T04:21:32;96115.00;;;9.60
14851;BMP180;7517;48.400;11.770;2022-12-29T04:24:00;96123.00;;;9.60
14851;BMP180;7517;48.400;11.770;2022-12-29T04:26:27;96112.00;;;9.70
14851;BMP180;7517;48.400;11.770;2022-12-29T04:28:54;96116.00;;;9.70
14851;BMP180;7517;48.400;11.770;2022-12-29T04:31:21;96109.00;;;9.70
14851;BMP180;7517;48.400;11.770;2022-12-29T04:33:48;96103.00;;;9.80
14851;BMP180;7517;48.400;11.770;2022-12-29T04:36:16;96103.00;;;9.80
14851;BMP180;7517;48.400;11.770;2022-12-29T04:38:43;96098.00;;;9.80
14851;BMP180;7517;48.400;11.770;2022-12-29T04:41:11;96102.00;;;9.90
14851;BMP180;7517;48.400;11.770;2022-12-29T04:43:38;96100.00;;;9.90
14851;BMP180;7517;48.400;11.770;2022-12-29T04:46:06;96091.00;;;9.90
14851;BMP180;7517;48.400;11.770;2022-12-29T04:48:33;96093.00;;;9.90
14851;BMP180;7517;48.400;11.770;2022-12-29T04:51:00;96084.00;;;10.00
14851;BMP180;7517;48.400;11.770;2022-12-29T04:53:27;96090.00;;;10.00
14851;BMP180;7517;48.400;11.770;2022-12-29T04:55:55;96087.00;;;10.00
14851;BMP180;7517;48.400;11.770;2022-12-29T04:58:23;96092.00;;;10.00
14851;BMP180;7517;48.400;11.770;2022-12-29T05:00:51;96089.00;;;10.10
14851;BMP180;7517;48.400;11.770;2022-12-29T05:03:19;96100.00;;;10.10
14851;BMP180;7517;48.400;11.770;2022-12-29T05:05:46;96097.00;;;10.10
14851;BMP180;7517;48.400;11.770;2022-12-29T05:08:13;96099.00;;;10.20
14851;BMP180;7517;48.400;11.770;2022-12-29T05:10:43;96107.00;;;10.20
14851;BMP180;7517;48.400;11.770;2022-12-29T05:13:10;96097.00;;;10.20
14851;BMP180;7517;48.400;11.770;2022-12-29T05:15:39;96098.00;;;10.30
14851;BMP180;7517;48.400;11.770;2022-12-29T05:18:06;96102.00;;;10.30
14851;BMP180;7517;48.400;11.770;2022-12-29T05:20:33;96115.00;;;10.40
14851;BMP180;7517;48.400;11.770;2022-12-29T05:23:00;96110.00;;;10.40
14851;BMP180;7517;48.400;11.770;2022-12-29T05:25:27;96104.00;;;10.40
14851;BMP180;7517;48.400;11.770;2022-12-29T05:27:54;96101.00;;;10.40
14851;BMP180;7517;48.400;11.770;2022-12-29T05:30:21;96103.00;;;10.50
14851;BMP180;7517;48.400;11.770;2022-12-29T05:32:50;96105.00;;;10.50
14851;BMP180;7517;48.400;11.770;2022-12-29T05:35:17;96102.00;;;10.50
14851;BMP180;7517;48.400;11.770;2022-12-29T05:37:44;96108.00;;;10.50
14851;BMP180;7517;48.400;11.770;2022-12-29T05:40:11;96097.00;;;10.60
14851;BMP180;7517;48.400;11.770;2022-12-29T05:42:39;96093.00;;;10.60
14851;BMP180;7517;48.400;11.770;2022-12-29T05:45:08;96099.00;;;10.70
14851;BMP180;7517;48.400;11.770;2022-12-29T05:47:35;96099.00;;;10.70
14851;BMP180;7517;48.400;11.770;2022-12-29T05:50:04;96105.00;;;10.70
14851;BMP180;7517;48.400;11.770;2022-12-29T05:52:31;96096.00;;;10.70
14851;BMP180;7517;48.400;11.770;2022-12-29T05:54:59;96096.00;;;10.80
14851;BMP180;7517;48.400;11.770;2022-12-29T05:57:26;96094.00;;;10.80
14851;BMP180;7517;48.400;11.770;2022-12-29T05:59:53;96096.00;;;10.80
14851;BMP180;7517;48.400;11.770;2022-12-29T06:02:20;96094.00;;;10.80
14851;BMP180;7517;48.400;11.770;2022-12-29T06:04:47;96099.00;;;10.90
14851;BMP180;7517;48.400;11.770;2022-12-29T06:07:15;96104.00;;;10.90
14851;BMP180;7517;48.400;11.770;2022-12-29T06:09:42;96105.00;;;10.90
14851;BMP180;7517;48.400;11.770;2022-12-29T06:12:09;96101.00;;;10.90
14851;BMP180;7517;48.400;11.770;2022-12-29T06:14:36;96099.00;;;10.90
14851;BMP180;7517;48.400;11.770;2022-12-29T06:17:04;96097.00;;;10.90
14851;BMP180;7517;48.400;11.770;2022-12-29T06:19:31;96094.00;;;10.90
14851;BMP180;7517;48.400;11.770;2022-12-29T06:21:58;96093.00;;;10.90
14851;BMP180;7517;48.400;11.770;2022-12-29T06:24:26;96096.00;;;11.00
14851;BMP180;7517;48.400;11.770;2022-12-29T06:26:54;96094.00;;;10.90
14851;BMP180;7517;48.400;11.770;2022-12-29T06:29:21;96106.00;;;10.90
14851;BMP180;7517;48.400;11.770;2022-12-29T06:31:48;96099.00;;;10.90
14851;BMP180;7517;48.400;11.770;2022-12-29T06:34:16;96105.00;;;10.90
14851;BMP180;7517;48.400;11.770;2022-12-29T06:36:44;96109.00;;;10.90
14851;BMP180;7517;48.400;11.770;2022-12-29T06:39:11;96113.00;;;10.90
14851;BMP180;7517;48.400;11.770;2022-12-29T06:41:40;96106.00;;;10.90
14851;BMP180;7517;48.400;11.770;2022-12-29T06:44:07;96108.00;;;11.00
14851;BMP180;7517;48.400;11.770;2022-12-29T06:46:34;96108.00;;;11.00
14851;BMP180;7517;48.400;11.770;2022-12-29T06:49:01;96115.00;;;11.00
14851;BMP180;7517;48.400;11.770;2022-12-29T06:51:28;96112.00;;;11.00
14851;BMP180;7517;48.400;11.770;2022-12-29T06:53:55;96108.00;;;11.00
14851;BMP180;7517;48.400;11.770;2022-12-29T06:56:22;96115.00;;;11.00
14851;BMP180;7517;48.400;11.770;2022-12-29T06:58:51;96109.00;;;11.00
14851;BMP180;7517;48.400;11.770;2022-12-29T07:01:18;96111.00;;;11.00
14851;BMP180;7517;48.400;11.770;2022-12-29T07:03:45;96115.00;;;11.10
14851;BMP180;7517;48.400;11.770;2022-12-29T07:06:13;96117.00;;;11.10
14851;BMP180;7517;48.400;11.770;2022-12-29T07:08:40;96122.00;;;11.10
14851;BMP180;7517;48.400;11.770;2022-12-29T07:11:07;96122.00;;;11.10
14851;BMP180;7517;48.400;11.770;2022-12-29T07:13:34;96132.00;;;11.10
14851;BMP180;7517;48.400;11.770;2022-12-29T07:16:07;96140.00;;;11.20
14851;BMP180;7517;48.400;11.770;2022-12-29T07:18:35;96134.00;;;11.20
14851;BMP180;7517;48.400;11.770;2022-12-29T07:21:03;96140.00;;;11.20
14851;BMP180;7517;48.400;11.770;2022-12-29T07:23:30;96146.00;;;11.20
14851;BMP180;7517;48.400;11.770;2022-12-29T07:26:01;96142.00;;;11.30
14851;BMP180;7517;48.400;11.770;2022-12-29T07:28:28;96139.00;;;11.30
14851;BMP180;7517;48.400;11.770;2022-12-29T07:30:56;96147.00;;;11.30
14851;BMP180;7517;48.400;11.770;2022-12-29T07:33:25;96148.00;;;11.30
14851;BMP180;7517;48.400;11.770;2022-12-29T07:35:52;96159.00;;;11.40
14851;BMP180;7517;48.400;11.770;2022-12-29T07:38:19;96158.00;;;11.40
14851;BMP180;7517;48.400;11.770;2022-12-29T07:40:46;96163.00;;;11.50
14851;BMP180;7517;48.400;11.770;2022-12-29T07:43:13;96165.00;;;11.50
14851;BMP180;7517;48.400;11.770;2022-12-29T07:45:40;96159.00;;;11.50
14851;BMP180;7517;48.400;11.770;2022-12-29T07:48:08;96167.00;;;11.60
14851;BMP180;7517;48.400;11.770;2022-12-29T07:50:36;96154.00;;;11.60
14851;BMP180;7517;48.400;11.770;2022-12-29T07:53:04;96144.00;;;11.60
14851;BMP180;7517;48.400;11.770;2022-12-29T07:55:31;96132.00;;;11.60
14851;BMP180;7517;48.400;11.770;2022-12-29T07:57:58;96132.00;;;11.70
14851;BMP180;7517;48.400;11.770;2022-12-29T08:00:26;96147.00;;;11.70
14851;BMP180;7517;48.400;11.770;2022-12-29T08:02:53;96151.00;;;11.70
14851;BMP180;7517;48.400;11.770;2022-12-29T08:05:20;96153.00;;;11.70
14851;BMP180;7517;48.400;11.770;2022-12-29T08:07:48;96163.00;;;11.70
14851;BMP180;7517;48.400;11.770;2022-12-29T08:10:16;96172.00;;;11.70
14851;BMP180;7517;48.400;11.770;2022-12-29T08:12:43;96167.00;;;11.70
14851;BMP180;7517;48.400;11.770;2022-12-29T08:15:12;96151.00;;;11.70
14851;BMP180;7517;48.400;11.770;2022-12-29T08:17:39;96165.00;;;11.70
14851;BMP180;7517;48.400;11.770;2022-12-29T08:20:10;96155.00;;;11.70
14851;BMP180;7517;48.400;11.770;2022-12-29T08:22:37;96149.00;;;11.70
14851;BMP180;7517;48.400;11.770;2022-12-29T08:25:07;96152.00;;;11.70
14851;BMP180;7517;48.400;11.770;2022-12-29T08:27:34;96152.00;;;11.80
14851;BMP180;7517;48.400;11.770;2022-12-29T08:30:01;96157.00;;;11.80
14851;BMP180;7517;48.400;11.770;2022-12-29T08:32:28;96162.00;;;11.80
14851;BMP180;7517;48.400;11.770;2022-12-29T08:34:55;96156.00;;;11.90
14851;BMP180;7517;48.400;11.770;2022-12-29T08:37:23;96151.00;;;11.90
14851;BMP180;7517;48.400;11.770;2022-12-29T08:39:50;96157.00;;;12.00
14851;BMP180;7517;48.400;11.770;2022-12-29T08:42:18;96159.00;;;12.00
14851;BMP180;7517;48.400;11.770;2022-12-29T08:44:45;96158.00;;;12.00
14851;BMP180;7517;48.400;11.770;2022-12-29T08:47:13;96164.00;;;12.00
14851;BMP180;7517;48.400;11.770;2022-12-29T08:49:40;96161.00;;;12.10
14851;BMP180;7517;48.400;11.770;2022-12-29T08:52:08;96167.00;;;12.10
14851;BMP180;7517;48.400;11.770;2022-12-29T08:54:35;96174.00;;;12.10
14851;BMP180;7517;48.400;11.770;2022-12-29T08:57:02;96172.00;;;12.20
14851;BMP180;7517;48.400;11.770;2022-12-29T08:59:31;96174.00;;;12.20
14851;BMP180;7517;48.400;11.770;2022-12-29T09:01:58;96166.00;;;12.30
14851;BMP180;7517;48.400;11.770;2022-12-29T09:04:25;96178.00;;;12.30
14851;BMP180;7517;48.400;11.770;2022-12-29T09:06:53;96171.00;;;12.40
14851;BMP180;7517;48.400;11.770;2022-12-29T09:09:20;96171.00;;;12.50
14851;BMP180;7517;48.400;11.770;2022-12-29T09:11:48;96175.00;;;12.50
14851;BMP180;7517;48.400;11.770;2022-12-29T09:14:15;96176.00;;;12.60
14851;BMP180;7517;48.400;11.770;2022-12-29T09:16:43;96179.00;;;12.60
14851;BMP180;7517;48.400;11.770;2022-12-29T09:19:28;96185.00;;;12.70
14851;BMP180;7517;48.400;11.770;2022-12-29T09:21:55;96183.00;;;12.80
14851;BMP180;7517;48.400;11.770;2022-12-29T09:24:22;96190.00;;;12.90
14851;BMP180;7517;48.400;11.770;2022-12-29T09:26:49;96180.00;;;13.00
14851;BMP180;7517;48.400;11.770;2022-12-29T09:29:17;96190.00;;;13.10
14851;BMP180;7517;48.400;11.770;2022-12-29T09:31:45;96183.00;;;13.20
14851;BMP180;7517;48.400;11.770;2022-12-29T09:34:12;96179.00;;;13.30
14851;BMP180;7517;48.400;11.770;2022-12-29T09:36:39;96172.00;;;13.50
14851;BMP180;7517;48.400;11.770;2022-12-29T09:39:07;96180.00;;;13.70
14851;BMP180;7517;48.400;11.770;2022-12-29T09:41:41;96166.00;;;13.90
14851;BMP180;7517;48.400;11.770;2022-12-29T09:44:21;96180.00;;;14.10
14851;BMP180;7517;48.400;11.770;2022-12-29T09:46:54;96176.00;;;14.30
14851;BMP180;7517;48.400;11.770;2022-12-29T09:49:29;96188.00;;;14.50
14851;BMP180;7517;48.400;11.770;2022-12-29T09:52:05;96181.00;;;14.60
14851;BMP180;7517;48.400;11.770;2022-12-29T09:54:43;96178.00;;;14.70
14851;BMP180;7517;48.400;11.770;2022-12-29T09:57:21;96175.00;;;14.80
14851;BMP180;7517;48.400;11.770;2022-12-29T09:59:55;96187.00;;;14.90
14851;BMP180;7517;48.400;11.770;2022-12-29T10:02:38;96185.00;;;15.00
14851;BMP180;7517;48.400;11.770;2022-12-29T10:05:26;96192.00;;;15.10
14851;BMP180;7517;48.400;11.770;2022-12-29T10:08:11;96187.00;;;15.20
14851;BMP180;7517;48.400;11.770;2022-12-29T10:10:50;96187.00;;;15.30
14851;BMP180;7517;48.400;11.770;2022-12-29T10:13:32;96182.00;;;15.30
14851;BMP180;7517;48.400;11.770;2022-12-29T10:16:10;96186.00;;;15.40
14851;BMP180;7517;48.400;11.770;2022-12-29T10:19:12;96187.00;;;15.50
14851;BMP180;7517;48.400;11.770;2022-12-29T10:22:00;96179.00;;;15.70
14851;BMP180;7517;48.400;11.770;2022-12-29T10:24:32;96176.00;;;15.80
14851;BMP180;7517;48.400;11.770;2022-12-29T10:27:03;96178.00;;;15.90
14851;BMP180;7517;48.400;11.770;2022-12-29T10:29:37;96171.00;;;15.90
14851;BMP180;7517;48.400;11.770;2022-12-29T10:32:17;96172.00;;;16.00
14851;BMP180;7517;48.400;11.770;2022-12-29T10:34:55;96180.00;;;16.10
14851;BMP180;7517;48.400;11.770;2022-12-29T10:37:42;96176.00;;;16.10
14851;BMP180;7517;48.400;11.770;2022-12-29T10:40:21;96163.00;;;16.10
14851;BMP180;7517;48.400;11.770;2022-12-29T10:42:53;96168.00;;;16.20
14851;BMP180;7517;48.400;11.770;2022-12-29T10:45:28;96170.00;;;16.20
14851;BMP180;7517;48.400;11.770;2022-12-29T10:48:01;96167.00;;;16.20
14851;BMP180;7517;48.400;11.770;2022-12-29T10:50:31;96160.00;;;16.20
14851;BMP180;7517;48.400;11.770;2022-12-29T10:53:04;96156.00;;;16.20
14851;BMP180;7517;48.400;11.770;2022-12-29T10:55:35;96148.00;;;16.20
14851;BMP180;7517;48.400;11.770;2022-12-29T10:58:06;96145.00;;;16.20
14851;BMP180;7517;48.400;11.770;2022-12-29T11:00:34;96136.00;;;16.20
14851;BMP180;7517;48.400;11.770;2022-12-29T11:03:40;96148.00;;;16.30
14851;BMP180;7517;48.400;11.770;2022-12-29T11:06:18;96153.00;;;16.30
14851;BMP180;7517;48.400;11.770;2022-12-29T11:08:56;96141.00;;;16.30
14851;BMP180;7517;48.400;11.770;2022-12-29T11:11:27;96135.00;;;16.30
14851;BMP180;7517;48.400;11.770;2022-12-29T11:14:07;96132.00;;;16.30
14851;BMP180;7517;48.400;11.770;2022-12-29T11:16:37;96131.00;;;16.40
14851;BMP180;7517;48.400;11.770;2022-12-29T11:19:04;96128.00;;;16.40
14851;BMP180;7517;48.400;11.770;2022-12-29T11:21:37;96138.00;;;16.40
14851;BMP180;7517;48.400;11.770;2022-12-29T11:24:21;96131.00;;;16.40
14851;BMP180;7517;48.400;11.770;2022-12-29T11:26:51;96132.00;;;16.50
14851;BMP180;7517;48.400;11.770;2022-12-29T11:29:28;96136.00;;;16.50
14851;BMP180;7517;48.400;11.770;2022-12-29T11:31:58;96135.00;;;16.50
14851;BMP180;7517;48.400;11.770;2022-12-29T11:34:31;96142.00;;;16.60
14851;BMP180;7517;48.400;11.770;2022-12-29T11:37:03;96136.00;;;16.60
14851;BMP180;7517;48.400;11.770;2022-12-29T11:39:38;96129.00;;;16.60
14851;BMP180;7517;48.400;11.770;2022-12-29T11:42:15;96129.00;;;16.60
14851;BMP180;7517;48.400;11.770;2022-12-29T11:44:46;96129.00;;;16.60
14851;BMP180;7517;48.400;11.770;2022-12-29T11:47:27;96130.00;;;16.70
14851;BMP180;7517;48.400;11.770;2022-12-29T11:49:58;96135.00;;;16.70
14851;BMP180;7517;48.400;11.770;2022-12-29T11:52:33;96127.00;;;16.70
14851;BMP180;7517;48.400;11.770;2022-12-29T11:55:04;96127.00;;;16.70
14851;BMP180;7517;48.400;11.770;2022-12-29T11:57:35;96127.00;;;16.60
14851;BMP180;7517;48.400;11.770;2022-12-29T12:00:16;96119.00;;;16.60
14851;BMP180;7517;48.400;11.770;2022-12-29T12:02:51;96127.00;;;16.60
14851;BMP180;7517;48.400;11.770;2022-12-29T12:05:25;96123.00;;;16.60
14851;BMP180;7517;48.400;11.770;2022-12-29T12:08:07;96123.00;;;16.60
14851;BMP180;7517;48.400;11.770;2022-12-29T12:10:42;96110.00;;;16.60
14851;BMP180;7517;48.400;11.770;2022-12-29T12:13:22;96108.00;;;16.70
14851;BMP180;7517;48.400;11.770;2022-12-29T12:16:02;96108.00;;;16.70
14851;BMP180;7517;48.400;11.770;2022-12-29T12:18:41;96104.00;;;16.70
14851;BMP180;7517;48.400;11.770;2022-12-29T12:21:20;96103.00;;;16.70
14851;BMP180;7517;48.400;11.770;2022-12-29T12:24:14;96086.00;;;16.70
14851;BMP180;7517;48.400;11.770;2022-12-29T12:26:58;96091.00;;;16.70
14851;BMP180;7517;48.400;11.770;2022-12-29T12:29:36;96098.00;;;16.70
14851;BMP180;7517;48.400;11.770;2022-12-29T12:32:15;96091.00;;;16.70
14851;BMP180;7517;48.400;11.770;2022-12-29T12:34:45;96089.00;;;16.80
14851;BMP180;7517;48.400;11.770;2022-12-29T12:37:46;96083.00;;;16.80
14851;BMP180;7517;48.400;11.770;2022-12-29T12:40:36;96084.00;;;16.80
14851;BMP180;7517;48.400;11.770;2022-12-29T12:43:34;96078.00;;;16.80
14851;BMP180;7517;48.400;11.770;2022-12-29T12:53:28;96085.00;;;16.90
14851;BMP180;7517;48.400;11.770;2022-12-29T12:56:23;96083.00;;;17.00
14851;BMP180;7517;48.400;11.770;2022-12-29T12:59:02;96076.00;;;17.00
14851;BMP180;7517;48.400;11.770;2022-12-29T13:01:42;96080.00;;;17.10
14851;BMP180;7517;48.400;11.770;2022-12-29T13:05:04;96078.00;;;17.10
14851;BMP180;7517;48.400;11.770;2022-12-29T13:07:50;96075.00;;;17.20
14851;BMP180;7517;48.400;11.770;2022-12-29T13:10:39;96074.00;;;17.20
14851;BMP180;7517;48.400;11.770;2022-12-29T13:13:36;96079.00;;;17.20
14851;BMP180;7517;48.400;11.770;2022-12-29T13:16:19;96073.00;;;17.30
14851;BMP180;7517;48.400;11.770;2022-12-29T13:18:57;96085.00;;;17.30
14851;BMP180;7517;48.400;11.770;2022-12-29T13:21:47;96083.00;;;17.40
14851;BMP180;7517;48.400;11.770;2022-12-29T13:24:28;96070.00;;;17.50
14851;BMP180;7517;48.400;11.770;2022-12-29T13:27:08;96078.00;;;17.50
14851;BMP180;7517;48.400;11.770;2022-12-29T13:29:48;96076.00;;;17.50
14851;BMP180;7517;48.400;11.770;2022-12-29T13:32:34;96069.00;;;17.60
14851;BMP180;7517;48.400;11.770;2022-12-29T13:35:24;96078.00;;;17.60
14851;BMP180;7517;48.400;11.770;2022-12-29T13:37:58;96074.00;;;17.60
14851;BMP180;7517;48.400;11.770;2022-12-29T13:40:32;96070.00;;;17.70
14851;BMP180;7517;48.400;11.770;2022-12-29T13:43:02;96072.00;;;17.60
14851;BMP180;7517;48.400;11.770;2022-12-29T13:45:33;96067.00;;;17.60
14851;BMP180;7517;48.400;11.770;2022-12-29T13:48:07;96082.00;;;17.60
14851;BMP180;7517;48.400;11.770;2022-12-29T13:50:39;96074.00;;;17.60
14851;BMP180;7517;48.400;11.770;2022-12-29T13:53:15;96084.00;;;17.60
14851;BMP180;7517;48.400;11.770;2022-12-29T13:55:53;96089.00;;;17.60
14851;BMP180;7517;48.400;11.770;2022-12-29T13:58:31;96098.00;;;17.60
14851;BMP180;7517;48.400;11.770;2022-12-29T14:01:08;96092.00;;;17.50
14851;BMP180;7517;48.400;11.770;2022-12-29T14:03:48;96094.00;;;17.50
14851;BMP180;7517;48.400;11.770;2022-12-29T14:06:22;96086.00;;;17.50
14851;BMP180;7517;48.400;11.770;2022-12-29T14:08:54;96083.00;;;17.50
14851;BMP180;7517;48.400;11.770;2022-12-29T14:11:29;96088.00;;;17.50
14851;BMP180;7517;48.400;11.770;2022-12-29T14:13:57;96086.00;;;17.50
14851;BMP180;7517;48.400;11.770;2022-12-29T14:16:30;96095.00;;;17.40
14851;BMP180;7517;48.400;11.770;2022-12-29T14:19:11;96090.00;;;17.40
14851;BMP180;7517;48.400;11.770;2022-12-29T14:21:40;96096.00;;;17.40
14851;BMP180;7517;48.400;11.770;2022-12-29T14:24:43;96082.00;;;17.30
14851;BMP180;7517;48.400;11.770;2022-12-29T14:28:02;96085.00;;;17.30
14851;BMP180;7517;48.400;11.770;2022-12-29T14:30:50;96083.00;;;17.20
14851;BMP180;7517;48.400;11.770;2022-12-29T14:33:21;96086.00;;;17.20
14851;BMP180;7517;48.400;11.770;2022-12-29T14:35:53;96099.00;;;17.20
14851;BMP180;7517;48.400;11.770;2022-12-29T14:38:27;96088.00;;;17.20
14851;BMP180;7517;48.400;11.770;2022-12-29T14:41:24;96086.00;;;17.10
14851;BMP180;7517;48.400;11.770;2022-12-29T14:43:58;96091.00;;;17.10
14851;BMP180;7517;48.400;11.770;2022-12-29T14:46:46;96080.00;;;17.10
14851;BMP180;7517;48.400;11.770;2022-12-29T14:49:20;96090.00;;;17.10
14851;BMP180;7517;48.400;11.770;2022-12-29T14:51:50;96094.00;;;17.10
14851;BMP180;7517;48.400;11.770;2022-12-29T14:54:51;96095.00;;;17.00
14851;BMP180;7517;48.400;11.770;2022-12-29T14:57:28;96095.00;;;17.00
14851;BMP180;7517;48.400;11.770;2022-12-29T15:00:08;96102.00;;;17.00
14851;BMP180;7517;48.400;11.770;2022-12-29T15:02:47;96101.00;;;17.00